createdAt,value
2022-11-27T00:01:23.614Z,2.56
2022-11-27T00:03:51.421Z,2.58
2022-11-27T00:06:20.814Z,2.65
2022-11-27T00:08:48.378Z,2.70
2022-11-27T00:11:18.141Z,2.75
2022-11-27T00:13:46.109Z,2.78
2022-11-27T00:16:14.450Z,2.81
2022-11-27T00:18:43.385Z,2.72
2022-11-27T00:21:16.735Z,2.80
2022-11-27T00:23:44.140Z,2.75
2022-11-27T00:26:11.732Z,2.86
2022-11-27T00:28:39.229Z,2.88
2022-11-27T00:31:12.423Z,2.79
2022-11-27T00:33:39.768Z,2.82
2022-11-27T00:36:08.206Z,2.78
2022-11-27T00:38:38.951Z,2.91
2022-11-27T00:41:19.472Z,2.89
2022-11-27T00:43:46.959Z,2.84
2022-11-27T00:46:15.428Z,2.80
2022-11-27T00:48:43.236Z,2.75
2022-11-27T00:51:14.012Z,2.87
2022-11-27T00:53:41.166Z,2.51
2022-11-27T00:56:08.633Z,2.83
2022-11-27T00:58:35.805Z,2.83
2022-11-27T01:01:07.496Z,2.80
2022-11-27T01:03:35.707Z,2.82
2022-11-27T01:06:07.179Z,2.80
2022-11-27T01:08:34.725Z,2.80
2022-11-27T01:11:02.519Z,2.81
2022-11-27T01:13:32.531Z,2.49
2022-11-27T01:16:17.946Z,2.84
2022-11-27T01:18:46.833Z,2.73
2022-11-27T01:21:16.337Z,2.62
2022-11-27T01:23:43.678Z,2.79
2022-11-27T01:29:12.033Z,2.77
2022-11-27T01:31:39.283Z,2.66
2022-11-27T01:34:11.861Z,2.69
2022-11-27T01:36:38.972Z,2.64
2022-11-27T01:39:05.936Z,2.66
2022-11-27T01:41:39.990Z,2.67
2022-11-27T01:44:25.401Z,2.67
2022-11-27T01:47:00.536Z,2.68
2022-11-27T01:49:39.895Z,2.62
2022-11-27T01:52:24.279Z,2.75
2022-11-27T01:55:06.317Z,2.72
2022-11-27T01:57:43.966Z,2.74
2022-11-27T02:00:14.269Z,2.79
2022-11-27T02:02:42.402Z,2.74
2022-11-27T02:05:10.858Z,2.82
2022-11-27T02:07:38.240Z,2.71
2022-11-27T02:10:06.807Z,2.88
2022-11-27T02:12:56.648Z,2.91
2022-11-27T02:15:37.258Z,2.90
2022-11-27T02:18:07.110Z,2.95
2022-11-27T02:20:59.361Z,2.96
2022-11-27T02:23:52.285Z,2.97
2022-11-27T02:26:31.518Z,2.97
2022-11-27T02:28:58.448Z,2.91
2022-11-27T02:31:45.874Z,2.86
2022-11-27T02:35:10.321Z,2.84
2022-11-27T02:37:46.762Z,2.41
2022-11-27T02:40:39.011Z,2.71
2022-11-27T02:43:11.618Z,2.70
2022-11-27T02:45:48.256Z,2.81
2022-11-27T02:48:18.414Z,2.82
2022-11-27T02:50:48.298Z,2.91
2022-11-27T02:53:21.203Z,2.89
2022-11-27T02:55:50.585Z,2.91
2022-11-27T02:58:22.154Z,2.94
2022-11-27T03:00:50.493Z,2.88
2022-11-27T03:03:22.273Z,2.80
2022-11-27T03:05:52.541Z,2.95
2022-11-27T03:08:39.127Z,2.99
2022-11-27T03:11:09.974Z,2.92
2022-11-27T03:13:47.246Z,2.89
2022-11-27T03:16:49.765Z,2.72
2022-11-27T03:19:19.547Z,2.74
2022-11-27T03:21:48.626Z,2.84
2022-11-27T03:24:15.609Z,2.87
2022-11-27T03:26:43.759Z,2.82
2022-11-27T03:29:36.608Z,2.96
2022-11-27T03:32:04.860Z,3.00
2022-11-27T03:34:32.721Z,2.98
2022-11-27T03:37:00.900Z,2.70
2022-11-27T03:39:29.617Z,2.90
2022-11-27T03:42:15.667Z,2.97
2022-11-27T03:44:53.629Z,2.82
2022-11-27T03:47:29.725Z,2.96
2022-11-27T03:50:09.024Z,2.99
2022-11-27T03:52:43.117Z,2.99
2022-11-27T03:55:25.861Z,3.02
2022-11-27T03:57:57.480Z,3.06
2022-11-27T04:00:33.100Z,3.02
2022-11-27T04:03:00.316Z,2.79
2022-11-27T04:05:27.254Z,2.80
2022-11-27T04:07:54.155Z,2.86
2022-11-27T04:10:21.697Z,2.66
2022-11-27T04:12:48.490Z,2.70
2022-11-27T04:15:15.502Z,2.77
2022-11-27T04:17:42.407Z,2.70
2022-11-27T04:20:12.802Z,2.24
2022-11-27T04:22:40.025Z,2.81
2022-11-27T04:25:07.228Z,2.87
2022-11-27T04:27:34.245Z,2.89
2022-11-27T04:30:01.239Z,2.98
2022-11-27T04:32:30.440Z,2.96
2022-11-27T04:34:57.359Z,2.88
2022-11-27T04:37:24.235Z,3.01
2022-11-27T04:39:51.182Z,2.66
2022-11-27T04:42:26.163Z,2.83
2022-11-27T04:44:58.106Z,2.70
2022-11-27T04:47:25.466Z,2.75
2022-11-27T04:49:52.450Z,2.64
2022-11-27T04:52:19.609Z,2.76
2022-11-27T04:54:46.562Z,2.45
2022-11-27T04:57:13.593Z,2.66
2022-11-27T04:59:41.197Z,2.69
2022-11-27T05:02:08.253Z,2.72
2022-11-27T05:04:35.228Z,2.83
2022-11-27T05:07:02.144Z,2.88
2022-11-27T05:09:29.102Z,2.91
2022-11-27T05:11:56.177Z,2.85
2022-11-27T05:14:28.944Z,2.95
2022-11-27T05:16:58.592Z,3.00
2022-11-27T05:19:28.430Z,3.00
2022-11-27T05:21:56.382Z,2.78
2022-11-27T05:24:25.990Z,2.97
2022-11-27T05:26:53.083Z,2.95
2022-11-27T05:29:20.585Z,2.99
2022-11-27T05:31:47.926Z,3.01
2022-11-27T05:34:15.183Z,3.02
2022-11-27T05:36:42.796Z,2.88
2022-11-27T05:39:11.338Z,2.65
2022-11-27T05:41:41.307Z,2.93
2022-11-27T05:44:13.608Z,2.97
2022-11-27T05:46:43.863Z,3.04
2022-11-27T05:49:13.949Z,2.98
2022-11-27T05:51:43.270Z,2.92
2022-11-27T05:54:13.522Z,2.99
2022-11-27T05:56:40.394Z,3.01
2022-11-27T05:59:07.328Z,3.02
2022-11-27T06:01:34.445Z,3.05
2022-11-27T06:04:01.564Z,3.16
2022-11-27T06:06:28.628Z,3.16
2022-11-27T06:08:55.554Z,3.07
2022-11-27T06:11:22.954Z,3.27
2022-11-27T06:13:50.370Z,3.31
2022-11-27T06:16:22.934Z,3.35
2022-11-27T06:18:51.916Z,3.39
2022-11-27T06:21:20.087Z,3.35
2022-11-27T06:23:47.078Z,3.44
2022-11-27T06:26:20.714Z,3.41
2022-11-27T06:28:48.700Z,3.45
2022-11-27T06:31:20.755Z,3.46
2022-11-27T06:33:49.144Z,3.44
2022-11-27T06:36:17.506Z,3.50
2022-11-27T06:38:45.220Z,3.52
2022-11-27T06:41:15.297Z,3.58
2022-11-27T06:43:42.798Z,3.54
2022-11-27T06:46:15.482Z,3.47
2022-11-27T06:48:44.650Z,3.58
2022-11-27T06:51:14.265Z,3.55
2022-11-27T06:53:41.910Z,3.55
2022-11-27T06:56:20.148Z,3.67
2022-11-27T06:58:47.143Z,3.70
2022-11-27T07:01:16.610Z,3.75
2022-11-27T07:03:44.633Z,3.76
2022-11-27T07:06:15.426Z,3.70
2022-11-27T07:08:43.156Z,3.76
2022-11-27T07:11:19.353Z,3.89
2022-11-27T07:13:47.428Z,3.86
2022-11-27T07:16:15.424Z,3.94
2022-11-27T07:18:51.273Z,3.92
2022-11-27T07:21:18.145Z,3.90
2022-11-27T07:23:45.913Z,4.06
2022-11-27T07:26:15.421Z,4.09
2022-11-27T07:28:46.031Z,4.12
2022-11-27T07:31:21.067Z,4.11
2022-11-27T07:33:48.429Z,4.15
2022-11-27T07:36:25.080Z,4.11
2022-11-27T07:38:52.281Z,4.22
2022-11-27T07:41:19.152Z,4.27
2022-11-27T07:43:46.903Z,4.22
2022-11-27T07:46:24.488Z,4.44
2022-11-27T07:48:51.989Z,4.51
2022-11-27T07:51:20.797Z,4.51
2022-11-27T07:53:48.694Z,4.51
2022-11-27T07:56:16.874Z,4.56
2022-11-27T07:58:44.704Z,4.49
2022-11-27T08:01:18.692Z,4.56
2022-11-27T08:03:46.388Z,4.49
2022-11-27T08:06:15.976Z,4.57
2022-11-27T08:08:47.660Z,4.39
2022-11-27T08:11:24.668Z,4.67
2022-11-27T08:14:05.459Z,4.65
2022-11-27T08:16:35.012Z,4.60
2022-11-27T08:19:02.517Z,4.65
2022-11-27T08:21:30.082Z,4.61
2022-11-27T08:23:58.215Z,4.53
2022-11-27T08:26:27.640Z,4.47
2022-11-27T08:28:54.848Z,4.57
2022-11-27T08:31:23.305Z,4.55
2022-11-27T08:33:50.712Z,4.52
2022-11-27T08:36:18.241Z,4.63
2022-11-27T08:38:46.560Z,4.64
2022-11-27T08:41:13.695Z,4.65
2022-11-27T08:43:40.829Z,4.81
2022-11-27T08:46:08.472Z,4.76
2022-11-27T08:48:35.650Z,4.89
2022-11-27T08:51:11.935Z,4.90
2022-11-27T08:53:39.485Z,4.82
2022-11-27T08:56:13.924Z,4.79
2022-11-27T08:58:41.291Z,4.79
2022-11-27T09:01:11.003Z,4.82
2022-11-27T09:03:38.717Z,4.98
2022-11-27T09:06:11.117Z,4.99
2022-11-27T09:08:39.721Z,5.09
2022-11-27T09:11:07.388Z,5.13
2022-11-27T09:13:37.173Z,5.08
2022-11-27T09:16:05.776Z,5.12
2022-11-27T09:18:33.340Z,5.16
2022-11-27T09:21:02.696Z,5.12
2022-11-27T09:23:30.146Z,5.24
2022-11-27T09:26:05.093Z,5.39
2022-11-27T09:28:33.262Z,5.44
2022-11-27T09:31:02.021Z,5.53
2022-11-27T09:33:30.860Z,5.59
2022-11-27T09:35:57.997Z,5.63
2022-11-27T09:38:25.066Z,5.75
2022-11-27T09:41:00.412Z,5.84
2022-11-27T09:43:34.581Z,5.90
2022-11-27T09:46:09.322Z,5.84
2022-11-27T09:48:42.533Z,5.56
2022-11-27T09:51:20.059Z,5.83
2022-11-27T09:53:58.665Z,5.72
2022-11-27T09:56:35.218Z,5.89
2022-11-27T09:59:08.709Z,5.89
2022-11-27T10:01:46.203Z,6.04
2022-11-27T10:04:19.049Z,5.93
2022-11-27T10:07:07.167Z,6.12
2022-11-27T10:09:55.431Z,6.25
2022-11-27T10:12:40.735Z,6.31
2022-11-27T10:15:13.947Z,6.36
2022-11-27T10:17:53.821Z,6.27
2022-11-27T10:20:47.669Z,6.09
2022-11-27T10:23:14.557Z,6.39
2022-11-27T10:25:47.972Z,6.37
2022-11-27T10:28:30.266Z,6.48
2022-11-27T10:31:11.838Z,6.57
2022-11-27T10:33:45.182Z,6.69
2022-11-27T10:36:19.085Z,6.66
2022-11-27T10:38:48.284Z,6.76
2022-11-27T10:44:30.866Z,6.73
2022-11-27T10:47:15.425Z,6.68
2022-11-27T10:50:01.898Z,6.80
2022-11-27T10:52:30.935Z,6.68
2022-11-27T10:55:02.671Z,6.86
2022-11-27T10:57:44.134Z,6.86
2022-11-27T11:00:28.266Z,6.90
2022-11-27T11:03:04.201Z,6.87
2022-11-27T11:05:45.500Z,6.91
2022-11-27T11:08:21.383Z,6.99
2022-11-27T11:10:59.908Z,7.06
2022-11-27T11:13:32.381Z,7.14
2022-11-27T11:15:59.391Z,7.20
2022-11-27T11:18:32.426Z,7.28
2022-11-27T11:21:03.012Z,7.19
2022-11-27T11:23:36.247Z,7.38
2022-11-27T11:26:14.687Z,7.38
2022-11-27T11:28:50.620Z,7.40
2022-11-27T11:31:21.284Z,7.55
2022-11-27T11:34:21.053Z,7.58
2022-11-27T11:37:04.426Z,7.57
2022-11-27T11:39:44.529Z,7.49
2022-11-27T11:42:23.637Z,7.48
2022-11-27T11:45:04.347Z,7.39
2022-11-27T11:47:31.807Z,7.40
2022-11-27T11:49:59.287Z,7.41
2022-11-27T11:52:59.617Z,7.53
2022-11-27T11:55:34.677Z,7.53
2022-11-27T11:58:31.103Z,7.52
2022-11-27T12:01:26.559Z,7.52
2022-11-27T12:04:18.952Z,7.52
2022-11-27T12:07:07.846Z,7.59
2022-11-27T12:10:06.221Z,7.51
2022-11-27T12:12:57.024Z,7.45
2022-11-27T12:15:46.582Z,7.49
2022-11-27T12:18:41.665Z,7.56
2022-11-27T12:21:17.993Z,7.56
2022-11-27T12:23:57.964Z,7.67
2022-11-27T12:26:37.119Z,7.72
2022-11-27T12:29:38.567Z,7.62
2022-11-27T12:32:28.457Z,7.57
2022-11-27T12:35:24.754Z,7.49
2022-11-27T12:38:22.790Z,7.49
2022-11-27T12:41:27.361Z,7.41
2022-11-27T12:44:00.132Z,7.37
2022-11-27T12:46:27.164Z,7.34
2022-11-27T12:49:03.731Z,7.17
2022-11-27T12:51:43.412Z,7.30
2022-11-27T12:54:15.538Z,7.31
2022-11-27T12:56:49.792Z,7.02
2022-11-27T12:59:23.292Z,7.30
2022-11-27T13:02:01.732Z,7.31
2022-11-27T13:05:02.649Z,7.37
2022-11-27T13:07:53.796Z,7.38
2022-11-27T13:10:32.088Z,7.37
2022-11-27T13:13:34.303Z,7.31
2022-11-27T13:16:07.673Z,7.26
2022-11-27T13:18:43.964Z,7.30
2022-11-27T13:21:17.419Z,7.34
2022-11-27T13:23:44.794Z,7.35
2022-11-27T13:26:26.657Z,7.18
2022-11-27T13:28:59.425Z,7.29
2022-11-27T13:31:31.726Z,7.39
2022-11-27T13:34:02.580Z,7.28
2022-11-27T13:37:02.048Z,7.29
2022-11-27T13:39:35.447Z,7.35
2022-11-27T13:42:11.774Z,7.35
2022-11-27T13:44:44.320Z,7.16
2022-11-27T13:47:16.726Z,7.28
2022-11-27T13:49:43.938Z,7.24
2022-11-27T13:52:14.304Z,7.32
2022-11-27T13:55:07.764Z,7.32
2022-11-27T13:57:34.945Z,7.23
2022-11-27T14:00:12.140Z,7.21
2022-11-27T14:02:44.836Z,7.26
2022-11-27T14:05:18.518Z,7.11
2022-11-27T14:07:51.991Z,7.20
2022-11-27T14:10:24.676Z,7.10
2022-11-27T14:13:08.593Z,7.14
2022-11-27T14:15:37.752Z,7.11
2022-11-27T14:18:17.990Z,7.02
2022-11-27T14:20:52.508Z,7.10
2022-11-27T14:23:48.160Z,7.16
2022-11-27T14:26:15.660Z,7.17
2022-11-27T14:28:45.377Z,7.17
2022-11-27T14:31:28.773Z,7.19
2022-11-27T14:36:43.839Z,7.17
2022-11-27T14:39:24.034Z,7.17
2022-11-27T14:42:05.688Z,7.17
2022-11-27T14:44:33.221Z,7.10
2022-11-27T14:47:06.763Z,7.12
2022-11-27T14:49:34.917Z,7.10
2022-11-27T14:52:06.835Z,7.09
2022-11-27T14:54:39.301Z,6.94
2022-11-27T14:57:11.107Z,7.07
2022-11-27T14:59:40.048Z,6.99
2022-11-27T15:02:07.317Z,7.04
2022-11-27T15:04:39.807Z,6.98
2022-11-27T15:07:18.783Z,7.00
2022-11-27T15:09:49.913Z,7.02
2022-11-27T15:12:21.302Z,6.98
2022-11-27T15:15:00.199Z,6.97
2022-11-27T15:17:34.284Z,6.89
2022-11-27T15:20:04.195Z,6.87
2022-11-27T15:22:33.423Z,6.85
2022-11-27T15:25:06.058Z,6.85
2022-11-27T15:27:45.564Z,6.76
2022-11-27T15:30:18.066Z,6.54
2022-11-27T15:32:51.667Z,6.72
2022-11-27T15:35:29.259Z,6.66
2022-11-27T15:37:58.146Z,6.62
2022-11-27T15:40:28.499Z,6.64
2022-11-27T15:42:55.399Z,6.49
2022-11-27T15:45:23.388Z,6.58
2022-11-27T15:47:58.210Z,6.54
2022-11-27T15:50:25.376Z,6.59
2022-11-27T15:52:52.521Z,6.57
2022-11-27T15:55:19.847Z,6.47
2022-11-27T15:57:47.079Z,6.62
2022-11-27T16:00:15.103Z,6.63
2022-11-27T16:02:42.315Z,6.62
2022-11-27T16:05:09.484Z,6.61
2022-11-27T16:07:36.749Z,6.39
2022-11-27T16:10:04.061Z,6.61
2022-11-27T16:12:31.162Z,6.58
2022-11-27T16:14:59.417Z,6.52
2022-11-27T16:17:26.463Z,6.52
2022-11-27T16:19:53.601Z,6.45
2022-11-27T16:22:20.651Z,6.46
2022-11-27T16:24:47.618Z,6.42
2022-11-27T16:27:14.560Z,6.33
2022-11-27T16:29:41.725Z,6.45
2022-11-27T16:32:09.170Z,6.36
2022-11-27T16:34:37.004Z,6.40
2022-11-27T16:37:03.968Z,6.22
2022-11-27T16:39:31.327Z,6.35
2022-11-27T16:41:58.466Z,6.29
2022-11-27T16:44:25.706Z,6.31
2022-11-27T16:46:53.768Z,6.22
2022-11-27T16:49:21.888Z,6.20
2022-11-27T16:51:50.213Z,6.14
2022-11-27T16:54:18.553Z,6.14
2022-11-27T16:56:46.519Z,6.09
2022-11-27T16:59:15.083Z,6.07
2022-11-27T17:01:44.234Z,6.02
2022-11-27T17:04:20.099Z,6.00
2022-11-27T17:06:48.962Z,6.01
2022-11-27T17:09:16.592Z,5.86
2022-11-27T17:11:48.487Z,5.97
2022-11-27T17:14:16.434Z,6.00
2022-11-27T17:16:43.625Z,6.05
2022-11-27T17:19:15.567Z,6.04
2022-11-27T17:21:44.501Z,5.83
2022-11-27T17:24:15.214Z,5.97
2022-11-27T17:26:46.394Z,6.00
2022-11-27T17:29:16.869Z,5.72
2022-11-27T17:31:44.643Z,6.03
2022-11-27T17:34:14.224Z,6.06
2022-11-27T17:36:43.201Z,5.94
2022-11-27T17:39:15.196Z,6.04
2022-11-27T17:41:44.891Z,6.08
2022-11-27T17:44:11.795Z,6.07
2022-11-27T17:46:40.001Z,6.04
2022-11-27T17:49:08.157Z,6.06
2022-11-27T17:51:36.705Z,6.07
2022-11-27T17:54:05.487Z,6.12
2022-11-27T17:56:33.719Z,6.07
2022-11-27T17:59:01.814Z,6.17
2022-11-27T18:01:30.657Z,6.20
2022-11-27T18:04:01.041Z,6.01
2022-11-27T18:06:30.624Z,6.15
2022-11-27T18:08:59.898Z,6.24
2022-11-27T18:11:29.864Z,6.21
2022-11-27T18:13:59.343Z,6.07
2022-11-27T18:16:30.391Z,6.03
2022-11-27T18:18:59.138Z,6.06
2022-11-27T18:21:27.335Z,6.04
2022-11-27T18:29:29.761Z,5.81
2022-11-27T18:31:56.849Z,5.78
2022-11-27T18:34:23.853Z,5.68
2022-11-27T18:36:50.983Z,5.46
2022-11-27T18:39:18.201Z,5.55
2022-11-27T18:41:45.308Z,5.42
2022-11-27T18:44:12.171Z,5.36
2022-11-27T18:46:39.645Z,5.50
2022-11-27T18:49:06.895Z,5.46
2022-11-27T18:51:33.910Z,5.48
2022-11-27T18:54:02.382Z,5.37
2022-11-27T18:56:30.930Z,5.40
2022-11-27T18:59:03.696Z,5.39
2022-11-27T19:01:40.945Z,5.35
2022-11-27T19:04:10.619Z,5.31
2022-11-27T19:06:39.295Z,5.25
2022-11-27T19:09:06.902Z,5.26
2022-11-27T19:11:35.153Z,5.34
2022-11-27T19:14:03.909Z,5.30
2022-11-27T19:16:34.425Z,5.31
2022-11-27T19:19:03.457Z,5.34
2022-11-27T19:21:32.734Z,5.46
2022-11-27T19:24:02.580Z,5.48
2022-11-27T19:26:33.251Z,5.13
2022-11-27T19:29:03.656Z,5.51
2022-11-27T19:31:33.461Z,5.57
2022-11-27T19:34:02.355Z,5.54
2022-11-27T19:36:31.340Z,5.66
2022-11-27T19:39:03.429Z,5.60
2022-11-27T19:41:31.282Z,5.58
2022-11-27T19:44:01.695Z,5.62
2022-11-27T19:46:31.669Z,5.61
2022-11-27T19:49:04.792Z,5.55
2022-11-27T19:51:35.123Z,5.64
2022-11-27T19:54:09.675Z,5.62
2022-11-27T19:56:40.419Z,5.58
2022-11-27T19:59:08.721Z,5.59
2022-11-27T20:01:37.772Z,5.59
2022-11-27T20:04:05.672Z,5.58
2022-11-27T20:06:32.779Z,5.61
2022-11-27T20:09:02.240Z,5.53
2022-11-27T20:11:34.542Z,5.54
2022-11-27T20:14:05.179Z,5.44
2022-11-27T20:16:33.503Z,5.54
2022-11-27T20:19:02.215Z,5.41
2022-11-27T20:21:29.177Z,5.42
2022-11-27T20:23:57.878Z,5.38
2022-11-27T20:26:27.288Z,5.40
2022-11-27T20:28:54.823Z,5.31
2022-11-27T20:31:25.035Z,5.34
2022-11-27T20:33:56.079Z,5.21
2022-11-27T20:36:24.899Z,5.30
2022-11-27T20:38:55.674Z,5.15
2022-11-27T20:41:24.202Z,5.23
2022-11-27T20:44:00.044Z,5.05
2022-11-27T20:46:29.295Z,5.25
2022-11-27T20:48:56.932Z,5.21
2022-11-27T20:51:28.566Z,4.93
2022-11-27T20:53:57.676Z,5.19
2022-11-27T20:56:25.671Z,5.04
2022-11-27T20:58:53.935Z,5.11
2022-11-27T21:01:26.336Z,5.17
2022-11-27T21:03:55.716Z,5.15
2022-11-27T21:06:27.254Z,5.00
2022-11-27T21:08:55.317Z,5.08
2022-11-27T21:11:25.829Z,5.07
2022-11-27T21:13:58.353Z,5.09
2022-11-27T21:16:27.704Z,5.07
2022-11-27T21:18:56.713Z,4.90
2022-11-27T21:21:24.085Z,4.81
2022-11-27T21:23:51.442Z,4.86
2022-11-27T21:26:18.917Z,4.35
2022-11-27T21:28:46.664Z,5.04
2022-11-27T21:31:17.303Z,4.97
2022-11-27T21:33:49.784Z,4.95
2022-11-27T21:36:17.759Z,4.95
2022-11-27T21:38:45.808Z,4.91
2022-11-27T21:41:14.081Z,4.79
2022-11-27T21:43:41.492Z,4.66
2022-11-27T21:46:17.856Z,4.82
2022-11-27T21:48:49.998Z,4.85
2022-11-27T21:51:21.069Z,4.76
2022-11-27T21:53:51.358Z,4.75
2022-11-27T21:56:20.904Z,4.81
2022-11-27T21:58:49.645Z,4.70
2022-11-27T22:01:22.105Z,4.74
2022-11-27T22:03:54.953Z,4.73
2022-11-27T22:06:24.943Z,4.32
2022-11-27T22:08:54.957Z,4.69
2022-11-27T22:11:24.776Z,4.67
2022-11-27T22:13:52.383Z,4.58
2022-11-27T22:16:25.904Z,4.66
2022-11-27T22:19:04.842Z,4.49
2022-11-27T22:21:33.234Z,4.55
2022-11-27T22:24:02.186Z,4.52
2022-11-27T22:26:29.564Z,4.41
2022-11-27T22:28:58.721Z,4.29
2022-11-27T22:31:31.209Z,4.41
2022-11-27T22:33:58.975Z,4.42
2022-11-27T22:36:30.726Z,4.37
2022-11-27T22:39:00.774Z,4.50
2022-11-27T22:41:29.676Z,4.51
2022-11-27T22:44:00.320Z,4.51
2022-11-27T22:46:35.513Z,4.43
2022-11-27T22:49:05.870Z,4.42
2022-11-27T22:51:35.713Z,4.48
2022-11-27T22:54:04.478Z,4.51
2022-11-27T22:56:33.872Z,4.51
2022-11-27T22:59:30.601Z,4.46
2022-11-27T23:01:49.812Z,4.46
2022-11-27T23:04:16.968Z,4.51
2022-11-27T23:06:48.608Z,4.52
2022-11-27T23:09:18.175Z,4.37
2022-11-27T23:11:45.438Z,4.49
2022-11-27T23:14:12.727Z,4.43
2022-11-27T23:16:39.761Z,4.14
2022-11-27T23:19:06.990Z,4.46
2022-11-27T23:21:37.415Z,4.05
2022-11-27T23:24:05.890Z,4.42
2022-11-27T23:26:32.945Z,4.49
2022-11-27T23:29:00.005Z,4.37
2022-11-27T23:31:31.512Z,4.18
2022-11-27T23:34:01.961Z,4.42
2022-11-27T23:36:31.457Z,4.35
2022-11-27T23:39:02.496Z,4.38
2022-11-27T23:41:30.006Z,4.30
2022-11-27T23:43:58.135Z,4.32
2022-11-27T23:46:27.876Z,4.28
2022-11-27T23:48:57.461Z,4.23
2022-11-27T23:51:27.912Z,4.21
2022-11-27T23:53:55.182Z,4.14
2022-11-27T23:56:33.758Z,4.22
2022-11-27T23:59:07.203Z,4.07
